Time;durP1;ratioP1;P1;durP2;ratioP2;P2;SDS_P1;SDS_P2;PMS_P1;PMS_P2;Temp;Humidity;BMP_temperature;BMP_pressure;BME280_temperature;BME280_humidity;BME280_pressure;Samples;Min_cycle;Max_cycle;Signal;HPM_P1;HPM_P2
2022/06/04 00:01:13;;;;;;;17.20;9.93;;;;;;;13.19;87.28;95088.83;1790412;79;21218;-56
2022/06/04 00:03:42;;;;;;;16.52;9.23;;;;;;;13.16;87.32;95091.91;1791833;79;21595;-56
2022/06/04 00:06:10;;;;;;;12.50;8.83;;;;;;;13.14;87.44;95080.55;1792490;79;21084;-56
2022/06/04 00:08:38;;;;;;;10.35;8.78;;;;;;;13.13;87.13;95085.14;1817044;78;21065;-57
2022/06/04 00:16:40;;;;;;;9.33;8.40;;;;;;;13.04;87.19;95081.73;1817100;79;21006;-55
2022/06/04 00:19:09;;;;;;;11.90;8.63;;;;;;;13.03;86.59;95076.64;1790158;79;21021;-55
2022/06/04 00:21:37;;;;;;;12.73;9.13;;;;;;;12.97;86.17;95077.09;1817100;79;21041;-55
2022/06/04 00:24:06;;;;;;;12.63;8.60;;;;;;;12.90;86.21;95081.48;1816992;79;21461;-58
2022/06/04 00:26:35;;;;;;;14.98;9.23;;;;;;;12.86;86.39;95076.09;1817305;79;21091;-56
2022/06/04 00:29:05;;;;;;;14.45;9.38;;;;;;;12.83;86.57;95082.53;1816900;79;21017;-57
2022/06/04 00:31:33;;;;;;;11.57;8.63;;;;;;;12.80;86.79;95079.30;1817034;79;20986;-56
2022/06/04 00:34:01;;;;;;;10.35;8.70;;;;;;;12.80;86.76;95086.20;1816969;79;21049;-55
2022/06/04 00:36:31;;;;;;;11.45;9.70;;;;;;;12.75;86.77;95085.39;1817124;79;21547;-56
2022/06/04 00:39:00;;;;;;;12.03;9.68;;;;;;;12.72;86.93;95084.16;1785888;79;21489;-56
2022/06/04 00:41:53;;;;;;;18.80;10.48;;;;;;;12.70;87.09;95076.95;1817029;79;20986;-55
2022/06/04 00:44:32;;;;;;;13.25;8.65;;;;;;;12.66;87.29;95076.29;1816199;79;21010;-55
2022/06/04 00:47:12;;;;;;;11.73;8.43;;;;;;;12.70;87.79;95076.95;1816952;79;21544;-57
2022/06/04 00:49:41;;;;;;;10.13;8.60;;;;;;;12.68;87.77;95066.34;1817425;79;21029;-55
2022/06/04 00:52:13;;;;;;;10.90;7.97;;;;;;;12.66;88.02;95065.25;1817086;79;21872;-55
2022/06/04 00:54:42;;;;;;;12.50;9.53;;;;;;;12.66;88.22;95063.87;1817586;79;21057;-55
2022/06/04 00:57:26;;;;;;;13.20;8.80;;;;;;;12.62;88.17;95066.00;1816765;79;21076;-56
2022/06/04 01:00:10;;;;;;;9.60;8.25;;;;;;;12.58;88.14;95071.67;1816992;79;21033;-56
2022/06/04 01:02:58;;;;;;;10.45;8.13;;;;;;;12.54;88.15;95069.64;1817405;79;21018;-56
2022/06/04 01:05:54;;;;;;;9.65;8.70;;;;;;;12.52;87.95;95071.33;1817488;79;21114;-55
2022/06/04 01:08:45;;;;;;;10.55;9.53;;;;;;;12.45;87.89;95075.71;1816918;79;21498;-56
2022/06/04 01:12:09;;;;;;;9.60;8.63;;;;;;;12.41;88.27;95083.36;1817378;79;21048;-57
2022/06/04 01:14:22;;;;;;;9.38;8.45;;;;;;;12.41;88.55;95081.98;1813238;79;21022;-56
2022/06/04 01:17:08;;;;;;;9.20;8.33;;;;;;;12.44;88.54;95069.28;1817042;79;21036;-58
2022/06/04 01:19:47;;;;;;;14.07;8.65;;;;;;;12.45;88.59;95071.57;1816773;79;21285;-56
2022/06/04 01:22:53;;;;;;;9.20;8.30;;;;;;;12.47;88.46;95071.89;1789760;79;21064;-56
2022/06/04 01:25:55;;;;;;;10.00;7.92;;;;;;;12.46;88.30;95073.73;1817052;79;21001;-57
2022/06/04 01:28:25;;;;;;;9.78;8.78;;;;;;;12.43;88.39;95068.50;1817367;78;21040;-56
2022/06/04 01:30:57;;;;;;;8.93;7.90;;;;;;;12.47;88.33;95064.23;1816966;79;21041;-56
2022/06/04 01:33:36;;;;;;;9.00;8.10;;;;;;;12.46;88.27;95060.70;1817510;79;21541;-56
2022/06/04 01:36:14;;;;;;;10.78;7.67;;;;;;;12.44;87.89;95061.00;1792272;79;21041;-57
2022/06/04 01:38:56;;;;;;;10.45;7.65;;;;;;;12.36;87.69;95059.11;1816902;79;21529;-55
2022/06/04 01:41:33;;;;;;;12.47;7.22;;;;;;;12.31;87.69;95052.81;1815630;79;21060;-56
2022/06/04 01:44:14;;;;;;;9.38;7.62;;;;;;;12.30;87.52;95044.97;1817049;79;21201;-55
2022/06/04 01:46:48;;;;;;;9.00;7.97;;;;;;;12.25;87.50;95044.94;1816974;79;21091;-56
2022/06/04 01:49:47;;;;;;;8.55;7.65;;;;;;;12.21;87.57;95052.58;1816923;79;21512;-56
2022/06/04 01:52:21;;;;;;;12.78;8.40;;;;;;;12.17;87.70;95052.54;1790040;79;21080;-55
2022/06/04 01:55:18;;;;;;;12.20;8.00;;;;;;;12.18;87.82;95046.58;1816851;79;21469;-56
2022/06/04 01:57:57;;;;;;;8.48;7.58;;;;;;;12.18;87.44;95041.66;1815029;78;21612;-55
2022/06/04 02:00:29;;;;;;;11.43;7.75;;;;;;;12.14;87.28;95048.70;1814017;78;21155;-56
2022/06/04 02:03:02;;;;;;;8.95;8.05;;;;;;;12.11;87.08;95046.83;1814767;78;21141;-56
2022/06/04 02:05:52;;;;;;;13.05;9.33;;;;;;;12.05;87.29;95052.77;1795079;80;28227;-57
2022/06/04 02:08:25;;;;;;;13.68;9.90;;;;;;;12.05;87.83;95048.63;1795403;80;21082;-56
2022/06/04 02:11:03;;;;;;;16.60;8.75;;;;;;;12.06;87.87;95054.93;1795268;79;21452;-55
2022/06/04 02:13:31;;;;;;;16.67;9.68;;;;;;;12.06;87.99;95061.20;1795399;79;21261;-56
2022/06/04 02:16:04;;;;;;;13.20;8.93;;;;;;;12.00;87.87;95049.22;1795340;80;21045;-56
2022/06/04 02:18:32;;;;;;;;;;;;;;;11.98;87.80;95052.25;1797862;79;21010;-56
2022/06/04 02:21:01;;;;;;;11.28;8.25;;;;;;;11.94;87.86;95057.88;1795075;80;20275;-57
2022/06/04 02:23:30;;;;;;;18.82;8.83;;;;;;;11.89;87.89;95051.57;1795525;80;21026;-56
2022/06/04 02:25:58;;;;;;;31.12;10.63;;;;;;;11.82;87.76;95049.08;1795362;79;21265;-57
2022/06/04 02:28:26;;;;;;;15.78;9.30;;;;;;;11.76;87.93;95043.98;1795392;79;21557;-55
2022/06/04 02:31:26;;;;;;;15.63;9.63;;;;;;;11.72;88.25;95042.56;1785903;80;21034;-55
2022/06/04 02:34:02;;;;;;;21.27;9.18;;;;;;;11.67;88.10;95037.00;1795438;79;21041;-56
2022/06/04 02:36:38;;;;;;;15.03;8.83;;;;;;;11.63;88.13;95034.20;1795122;79;21055;-57
2022/06/04 02:39:13;;;;;;;15.45;9.58;;;;;;;11.62;88.49;95038.95;1795326;79;21091;-57
2022/06/04 02:41:58;;;;;;;14.63;9.55;;;;;;;11.63;88.65;95047.39;1795025;79;21085;-56
2022/06/04 02:44:31;;;;;;;22.48;11.48;;;;;;;11.66;88.63;95038.81;1795485;80;21534;-57
2022/06/04 02:47:17;;;;;;;12.98;9.65;;;;;;;11.62;88.83;95043.09;1794979;79;21034;-55
2022/06/04 02:50:00;;;;;;;14.40;9.85;;;;;;;11.67;88.92;95035.62;1795419;79;20991;-57
2022/06/04 02:52:28;;;;;;;22.27;10.05;;;;;;;11.66;88.72;95031.92;1791715;79;21507;-55
2022/06/04 02:55:00;;;;;;;11.48;9.90;;;;;;;11.61;88.95;95032.50;1795329;80;21007;-56
2022/06/04 02:57:30;;;;;;;17.17;9.45;;;;;;;11.60;89.02;95033.72;1790773;80;21039;-56
2022/06/04 02:59:59;;;;;;;20.45;9.63;;;;;;;11.58;89.13;95030.05;1779802;80;20976;-55
2022/06/04 03:02:28;;;;;;;18.45;9.40;;;;;;;11.56;89.21;95035.21;1788658;80;21471;-56
2022/06/04 03:04:57;;;;;;;19.60;9.40;;;;;;;11.57;89.50;95036.75;1788634;80;21178;-55
2022/06/04 03:07:27;;;;;;;15.25;9.10;;;;;;;11.64;89.74;95034.36;1780144;80;21156;-55
2022/06/04 03:09:59;;;;;;;14.53;9.98;;;;;;;11.70;89.36;95040.23;1788679;80;21546;-56
2022/06/04 03:12:27;;;;;;;15.98;8.98;;;;;;;11.74;88.91;95035.98;1788930;80;20996;-56
2022/06/04 03:14:55;;;;;;;13.10;8.38;;;;;;;11.76;88.79;95037.09;1788673;80;21022;-56
2022/06/04 03:17:24;;;;;;;13.22;8.63;;;;;;;11.83;88.46;95040.18;1788905;80;21123;-56
2022/06/04 03:19:53;;;;;;;25.12;10.70;;;;;;;11.83;88.33;95038.20;1788630;80;21502;-55
2022/06/04 03:22:20;;;;;;;21.90;9.95;;;;;;;11.88;88.40;95034.87;1789314;80;21035;-57
2022/06/04 03:24:48;;;;;;;29.40;9.70;;;;;;;11.92;88.43;95032.75;1788587;80;21051;-56
2022/06/04 03:27:18;;;;;;;19.00;9.35;;;;;;;11.93;88.27;95030.16;1788691;80;21035;-55
2022/06/04 03:29:46;;;;;;;24.27;8.65;;;;;;;11.94;88.33;95033.06;1788881;80;21755;-57
2022/06/04 03:32:14;;;;;;;15.55;8.78;;;;;;;11.97;88.36;95027.28;1788624;80;21038;-57
2022/06/04 03:34:43;;;;;;;18.55;10.13;;;;;;;11.99;88.27;95027.59;1788670;80;21510;-57
2022/06/04 03:37:11;;;;;;;14.50;9.68;;;;;;;12.05;88.26;95027.20;1788888;80;21082;-55
2022/06/04 03:39:40;;;;;;;22.40;10.18;;;;;;;12.11;87.96;95019.25;1790750;80;21082;-56
2022/06/04 03:42:08;;;;;;;40.58;14.65;;;;;;;12.11;87.66;95030.28;1788787;80;21168;-57
2022/06/04 03:44:36;;;;;;;33.98;14.98;;;;;;;12.08;87.49;95024.29;1789150;79;20999;-58
2022/06/04 03:47:05;;;;;;;29.77;10.78;;;;;;;12.11;87.80;95022.00;1764294;80;21047;-55
2022/06/04 03:49:33;;;;;;;15.10;9.55;;;;;;;12.17;87.72;95013.92;1789191;80;20964;-56
2022/06/04 03:52:02;;;;;;;26.48;10.58;;;;;;;12.22;87.79;95016.87;1788786;80;21102;-58
2022/06/04 04:00:09;;;;;;;19.10;10.03;;;;;;;12.41;87.86;95007.48;1799960;79;21030;-56
2022/06/04 04:02:39;;;;;;;14.78;9.85;;;;;;;12.47;87.92;95000.77;1769436;79;20983;-55
2022/06/04 04:05:08;;;;;;;21.23;10.45;;;;;;;12.54;87.97;95005.41;1800060;79;21530;-56
2022/06/04 04:07:37;;;;;;;19.62;11.50;;;;;;;12.64;87.95;95006.97;1800063;79;21842;-58
2022/06/04 04:10:06;;;;;;;25.72;10.35;;;;;;;12.74;87.71;95009.94;1800285;79;21006;-55
2022/06/04 04:12:34;;;;;;;15.83;9.65;;;;;;;12.86;87.64;94997.40;1800079;79;20999;-56
2022/06/04 04:15:02;;;;;;;19.40;10.28;;;;;;;13.02;87.62;95001.91;1799912;79;20998;-58
2022/06/04 04:17:31;;;;;;;24.63;10.18;;;;;;;13.18;87.22;94995.53;1797400;79;21003;-57
2022/06/04 04:19:59;;;;;;;15.60;10.08;;;;;;;13.30;86.70;94998.00;1800262;79;21113;-56
2022/06/04 04:22:27;;;;;;;20.25;9.10;;;;;;;13.40;86.49;94988.48;1799928;79;21014;-55
2022/06/04 04:24:56;;;;;;;21.60;9.03;;;;;;;13.52;86.23;94992.51;1799702;79;21525;-55
2022/06/04 04:27:23;;;;;;;13.05;9.08;;;;;;;13.67;86.04;95000.95;1800048;79;21533;-56
2022/06/04 04:29:52;;;;;;;13.60;9.25;;;;;;;13.83;85.86;95002.03;1771437;79;21569;-56
2022/06/04 04:32:20;;;;;;;16.82;9.70;;;;;;;13.98;85.24;94997.42;1769966;79;21558;-57
2022/06/04 04:34:48;;;;;;;10.78;9.13;;;;;;;14.11;84.48;94999.38;1771679;79;20853;-56
2022/06/04 04:37:17;;;;;;;15.13;8.20;;;;;;;14.19;83.81;94996.50;1799844;79;20994;-57
2022/06/04 04:39:45;;;;;;;10.75;7.65;;;;;;;14.24;83.41;95002.18;1800556;79;21058;-56
2022/06/04 04:42:13;;;;;;;10.45;8.38;;;;;;;14.31;83.07;94989.99;1799961;79;21029;-56
2022/06/04 04:44:42;;;;;;;8.88;7.97;;;;;;;14.39;82.87;94991.22;1769863;79;21878;-56
2022/06/04 04:47:11;;;;;;;8.38;7.58;;;;;;;14.48;82.77;94988.56;1799778;79;21027;-58
2022/06/04 04:49:40;;;;;;;9.25;7.35;;;;;;;14.64;82.83;94988.20;1799970;79;21034;-57
2022/06/04 04:52:09;;;;;;;9.15;7.65;;;;;;;14.80;82.22;94985.06;1800001;79;21581;-57
2022/06/04 04:54:39;;;;;;;11.10;6.83;;;;;;;14.92;81.68;94984.09;1800027;79;21038;-56
2022/06/04 04:57:07;;;;;;;10.20;8.48;;;;;;;15.04;81.22;94983.09;1791532;79;21149;-56
2022/06/04 04:59:36;;;;;;;8.93;7.35;;;;;;;15.17;80.64;94983.65;1767191;81;21027;-55
2022/06/04 05:02:04;;;;;;;9.83;7.92;;;;;;;15.32;80.10;94976.20;1767598;81;21083;-58
2022/06/04 05:04:32;;;;;;;11.65;8.00;;;;;;;15.40;79.39;94974.59;1741564;81;21079;-55
2022/06/04 05:07:01;;;;;;;10.23;7.37;;;;;;;15.47;79.01;94977.63;1767254;80;21000;-57
2022/06/04 05:09:29;;;;;;;9.35;7.33;;;;;;;15.55;78.52;94977.44;1767401;81;21116;-55
2022/06/04 05:11:58;;;;;;;7.45;6.75;;;;;;;15.59;78.18;94966.32;1767072;81;20992;-56
2022/06/04 05:14:26;;;;;;;10.03;7.97;;;;;;;15.65;78.01;94967.80;1767119;81;21036;-56
2022/06/04 05:16:54;;;;;;;19.10;8.55;;;;;;;15.73;77.91;94966.21;1767333;81;21472;-58
2022/06/04 05:19:22;;;;;;;14.73;7.87;;;;;;;15.79;77.83;94965.08;1767617;81;20992;-58
2022/06/04 05:21:55;;;;;;;11.60;7.40;;;;;;;15.89;77.67;94962.36;1741843;81;21828;-57
2022/06/04 05:24:26;;;;;;;15.25;7.22;;;;;;;15.98;77.58;94956.73;1765904;81;21043;-58
2022/06/04 05:26:55;;;;;;;8.78;7.53;;;;;;;16.12;77.26;94957.99;1767488;81;21052;-60
2022/06/04 05:29:23;;;;;;;8.43;7.45;;;;;;;16.26;76.98;94955.22;1767204;80;21056;-56
2022/06/04 05:31:55;;;;;;;12.82;7.20;;;;;;;16.41;76.58;94958.19;1767128;81;21527;-56
2022/06/04 05:34:24;;;;;;;10.80;7.30;;;;;;;16.57;76.03;94957.67;1767211;81;21139;-55
2022/06/04 05:36:53;;;;;;;17.77;7.85;;;;;;;16.70;75.48;94954.61;1767331;81;21071;-56
2022/06/04 05:39:21;;;;;;;12.75;9.53;;;;;;;16.82;75.11;94953.52;1767184;81;21684;-58
2022/06/04 05:41:49;;;;;;;13.72;8.55;;;;;;;16.98;74.68;94953.79;1767093;80;21048;-57
2022/06/04 05:44:18;;;;;;;8.78;7.10;;;;;;;17.08;74.31;94949.63;1767042;80;21516;-57
2022/06/04 05:46:47;;;;;;;10.32;7.17;;;;;;;17.17;73.93;94950.13;1767287;80;21396;-58
2022/06/04 05:49:15;;;;;;;9.53;7.37;;;;;;;17.24;73.86;94950.48;1767080;81;21067;-58
2022/06/04 05:51:44;;;;;;;10.90;6.80;;;;;;;17.37;73.68;94940.44;1694373;81;21056;-57
2022/06/04 05:54:13;;;;;;;8.80;6.60;;;;;;;17.47;73.09;94943.23;1767254;81;21036;-56
2022/06/04 05:56:44;;;;;;;8.43;7.15;;;;;;;17.55;72.57;94942.33;1742076;80;21049;-57
2022/06/04 05:59:15;;;;;;;9.70;6.78;;;;;;;17.66;72.25;94947.27;1770670;79;21086;-56
2022/06/04 06:01:43;;;;;;;12.50;7.10;;;;;;;17.73;71.91;94942.66;1799984;79;21518;-58
2022/06/04 06:04:12;;;;;;;10.80;7.40;;;;;;;17.78;71.78;94941.95;1746417;79;21131;-58
2022/06/04 06:06:43;;;;;;;13.15;9.48;;;;;;;17.86;71.76;94938.90;1799866;79;21058;-58
2022/06/04 06:09:12;;;;;;;10.68;8.05;;;;;;;17.94;71.54;94934.42;1797047;79;21049;-57
2022/06/04 06:11:41;;;;;;;12.93;8.28;;;;;;;18.04;71.07;94931.63;1771779;79;21248;-58
2022/06/04 06:14:11;;;;;;;14.20;7.30;;;;;;;18.13;70.80;94921.84;1800056;79;21565;-56
2022/06/04 06:16:42;;;;;;;15.13;7.58;;;;;;;18.20;70.66;94917.25;1799709;79;20978;-56
2022/06/04 06:19:11;;;;;;;13.10;7.12;;;;;;;18.30;70.50;94913.05;1800198;79;21643;-58
2022/06/04 06:21:40;;;;;;;9.98;7.22;;;;;;;18.42;69.90;94911.90;1797062;79;21021;-57
2022/06/04 06:24:09;;;;;;;9.40;7.28;;;;;;;18.52;69.60;94904.91;1800130;79;21471;-57
2022/06/04 06:26:54;;;;;;;14.18;7.03;;;;;;;18.63;69.35;94905.62;1799780;79;21034;-58
2022/06/04 06:29:26;;;;;;;15.95;6.90;;;;;;;18.77;69.06;94908.87;1799824;79;21031;-56
2022/06/04 06:31:54;;;;;;;9.70;8.05;;;;;;;18.92;68.94;94913.05;1800219;79;21046;-59
2022/06/04 06:34:23;;;;;;;6.95;5.90;;;;;;;19.07;68.34;94896.93;1771482;79;21038;-59
2022/06/04 06:36:51;;;;;;;7.58;6.70;;;;;;;19.24;67.86;94899.22;1800047;79;21132;-57
2022/06/04 06:39:19;;;;;;;9.98;6.78;;;;;;;19.40;67.04;94892.18;1800426;79;20975;-57
2022/06/04 06:41:47;;;;;;;9.45;6.67;;;;;;;19.56;66.66;94890.09;1799850;79;21088;-57
2022/06/04 06:44:15;;;;;;;10.45;7.10;;;;;;;19.70;66.22;94889.89;1799829;79;21096;-60
2022/06/04 06:46:48;;;;;;;9.60;7.10;;;;;;;19.85;65.71;94886.26;1799711;79;21199;-56
2022/06/04 06:49:19;;;;;;;10.38;6.58;;;;;;;19.99;65.31;94886.68;1771803;79;21273;-56
2022/06/04 06:51:50;;;;;;;9.73;7.33;;;;;;;20.13;65.21;94889.27;1771529;79;21455;-58
2022/06/04 06:54:19;;;;;;;8.67;7.13;;;;;;;20.34;64.77;94878.64;1800558;79;21171;-57
2022/06/04 06:56:50;;;;;;;10.63;7.47;;;;;;;20.52;64.01;94878.14;1800156;79;20953;-56
2022/06/04 06:59:20;;;;;;;8.10;6.75;;;;;;;20.70;63.71;94872.03;1789423;79;21109;-57
2022/06/04 07:01:48;;;;;;;13.20;6.28;;;;;;;20.91;63.21;94870.52;1788862;80;21234;-59
2022/06/04 07:04:17;;;;;;;9.60;6.37;;;;;;;21.07;61.85;94864.13;1788755;79;21007;-58
2022/06/04 07:06:47;;;;;;;9.23;6.58;;;;;;;21.19;61.30;94858.61;1763563;80;20991;-57
2022/06/04 07:09:19;;;;;;;13.10;6.87;;;;;;;21.29;60.71;94857.06;1788757;80;21597;-56
2022/06/04 07:11:47;;;;;;;8.93;5.97;;;;;;;21.37;60.89;94846.84;1789139;79;21059;-60
2022/06/04 07:14:17;;;;;;;10.32;6.28;;;;;;;21.47;61.01;94839.69;1788821;80;21062;-58
2022/06/04 07:16:46;;;;;;;6.47;5.42;;;;;;;21.56;60.63;94843.58;1788687;79;21031;-57
2022/06/04 07:19:17;;;;;;;8.60;6.20;;;;;;;21.62;61.10;94847.14;1788689;80;21033;-59
2022/06/04 07:21:45;;;;;;;14.03;7.17;;;;;;;21.62;60.04;94856.32;1789093;80;20983;-58
2022/06/04 07:24:13;;;;;;;15.78;7.05;;;;;;;21.61;60.29;94848.39;1788815;80;21057;-57
2022/06/04 07:26:42;;;;;;;8.30;5.83;;;;;;;21.61;60.07;94848.39;1788800;80;21030;-60
2022/06/04 07:29:11;;;;;;;7.65;6.15;;;;;;;21.66;59.85;94846.25;1788673;80;21023;-60
2022/06/04 07:31:39;;;;;;;9.28;5.97;;;;;;;21.81;59.59;94832.03;1764603;80;21602;-60
2022/06/04 07:34:07;;;;;;;8.83;5.85;;;;;;;22.08;59.30;94835.32;1788675;80;21100;-57
2022/06/04 07:36:44;;;;;;;10.45;5.92;;;;;;;22.33;58.33;94822.23;1788841;80;21050;-58
2022/06/04 07:39:14;;;;;;;9.78;6.58;;;;;;;22.48;58.13;94825.47;1788653;80;21218;-58
2022/06/04 07:41:51;;;;;;;15.68;6.60;;;;;;;22.63;57.80;94823.05;1740181;80;21055;-58
2022/06/04 07:44:23;;;;;;;10.55;7.10;;;;;;;22.72;57.24;94811.51;1788716;80;21105;-57
2022/06/04 07:46:52;;;;;;;10.45;6.30;;;;;;;22.79;57.81;94822.14;1788822;80;21038;-57
2022/06/04 07:49:23;;;;;;;18.25;6.62;;;;;;;22.91;57.41;94816.55;1788961;80;21049;-56
2022/06/04 07:51:54;;;;;;;13.18;6.08;;;;;;;22.97;57.35;94811.63;1788947;80;22177;-57
2022/06/04 07:54:27;;;;;;;8.50;6.37;;;;;;;23.02;57.42;94812.86;1764968;80;21291;-58
2022/06/04 07:56:54;;;;;;;7.50;5.80;;;;;;;23.07;57.45;94802.98;1763242;80;21530;-58
2022/06/04 07:59:24;;;;;;;9.83;5.97;;;;;;;23.12;57.36;94800.78;1770103;79;21112;-59
2022/06/04 08:01:52;;;;;;;10.28;6.42;;;;;;;23.13;57.41;94800.89;1800582;79;22185;-58
2022/06/04 08:04:20;;;;;;;9.73;5.65;;;;;;;23.30;59.05;94793.67;1799923;79;21078;-57
2022/06/04 08:06:49;;;;;;;7.78;5.20;;;;;;;23.48;58.98;94786.69;1797521;79;21018;-60
2022/06/04 08:09:17;;;;;;;7.55;5.72;;;;;;;23.72;58.13;94782.41;1800068;79;20994;-61
2022/06/04 08:11:47;;;;;;;5.60;5.10;;;;;;;23.92;56.99;94782.55;1799907;79;21022;-58
2022/06/04 08:14:23;;;;;;;6.12;5.53;;;;;;;24.06;57.42;94776.45;1800013;79;21022;-58
2022/06/04 08:16:55;;;;;;;11.25;6.33;;;;;;;24.21;57.23;94773.26;1800217;79;21756;-58
2022/06/04 08:19:28;;;;;;;6.95;5.40;;;;;;;24.41;56.44;94775.48;1770390;79;21050;-61
2022/06/04 08:21:58;;;;;;;11.75;5.62;;;;;;;24.66;56.14;94770.50;1771123;79;21396;-60
2022/06/04 08:24:26;;;;;;;5.45;4.53;;;;;;;24.88;55.02;94763.83;1799926;79;21073;-57
2022/06/04 08:26:58;;;;;;;6.45;4.58;;;;;;;25.11;54.65;94761.36;1799929;79;21502;-58
2022/06/04 08:29:30;;;;;;;5.30;4.80;;;;;;;25.33;53.54;94758.13;1799825;79;21890;-59
2022/06/04 08:32:01;;;;;;;7.60;5.47;;;;;;;25.55;53.45;94751.38;1799694;79;21003;-58
2022/06/04 08:34:31;;;;;;;5.95;4.95;;;;;;;25.80;53.76;94751.84;1799947;79;21544;-57
2022/06/04 08:36:59;;;;;;;6.65;5.35;;;;;;;26.03;53.83;94748.01;1800223;79;21525;-58
2022/06/04 08:39:28;;;;;;;8.85;5.05;;;;;;;26.22;53.07;94742.30;1799999;79;21140;-57
2022/06/04 08:42:19;;;;;;;8.93;5.30;;;;;;;26.35;52.67;94735.83;1800286;79;21104;-58
2022/06/04 08:44:53;;;;;;;5.58;4.12;;;;;;;26.46;52.93;94741.95;1799808;79;21010;-57
2022/06/04 08:47:27;;;;;;;7.87;5.40;;;;;;;26.61;50.92;94736.47;1771991;79;21034;-57
2022/06/04 08:50:09;;;;;;;8.35;4.97;;;;;;;26.78;51.98;94730.38;1800166;79;21042;-58
2022/06/04 08:52:47;;;;;;;8.90;4.85;;;;;;;27.01;52.03;94729.23;1800320;79;21097;-61
2022/06/04 08:58:41;;;;;;;10.15;4.40;;;;;;;27.43;49.42;94716.50;1797406;79;21181;-58
2022/06/04 09:01:36;;;;;;;5.85;4.35;;;;;;;27.63;47.37;94706.42;1788506;80;21009;-57
2022/06/04 09:04:27;;;;;;;5.22;4.53;;;;;;;27.75;46.85;94703.39;1788765;80;21026;-58
2022/06/04 09:07:15;;;;;;;8.25;3.58;;;;;;;27.80;45.04;94703.20;1788925;80;21031;-59
2022/06/04 09:10:16;;;;;;;5.62;4.00;;;;;;;27.80;44.49;94694.72;1788859;80;21113;-58
2022/06/04 09:12:56;;;;;;;5.58;3.85;;;;;;;27.81;43.36;94700.47;1788688;80;20992;-56
2022/06/04 09:15:45;;;;;;;4.35;3.95;;;;;;;27.79;43.09;94693.20;1788836;80;21027;-59
2022/06/04 09:18:32;;;;;;;4.08;3.67;;;;;;;27.76;44.09;94687.27;1788512;80;21038;-55
2022/06/04 09:21:01;;;;;;;5.40;3.87;;;;;;;27.69;44.74;94683.73;1764956;80;21027;-56
2022/06/04 09:23:48;;;;;;;3.95;3.37;;;;;;;27.61;44.66;94687.17;1788792;80;21195;-57
2022/06/04 09:26:30;;;;;;;5.62;3.33;;;;;;;27.54;44.80;94684.32;1788439;80;21027;-57
2022/06/04 09:29:21;;;;;;;4.20;3.52;;;;;;;27.44;44.62;94682.68;1781869;80;21000;-58
2022/06/04 09:32:01;;;;;;;7.58;3.90;;;;;;;27.37;43.50;94681.27;1788718;80;21510;-57
2022/06/04 09:34:36;;;;;;;14.95;5.60;;;;;;;27.35;44.50;94679.63;1788832;80;21011;-57
2022/06/04 09:37:06;;;;;;;11.40;5.08;;;;;;;27.27;44.33;94674.61;1788587;79;21151;-56
2022/06/04 09:39:39;;;;;;;8.20;4.80;;;;;;;27.21;43.86;94674.77;1788457;80;21023;-56
2022/06/04 09:42:21;;;;;;;9.03;4.70;;;;;;;27.12;43.64;94676.70;1763263;80;21030;-57
2022/06/04 09:45:02;;;;;;;13.05;7.50;;;;;;;27.05;43.69;94675.96;1788511;80;20936;-59
2022/06/04 09:47:40;;;;;;;15.68;6.30;;;;;;;26.96;44.49;94675.08;1788566;80;21078;-59
2022/06/04 09:50:31;;;;;;;18.62;6.33;;;;;;;26.92;45.15;94673.91;1788770;80;21071;-59
2022/06/04 09:53:11;;;;;;;13.05;5.12;;;;;;;26.87;45.71;94670.59;1790010;80;21524;-57
2022/06/04 09:55:51;;;;;;;15.20;5.83;;;;;;;26.80;46.56;94673.47;1790466;79;21058;-58
2022/06/04 09:58:33;;;;;;;10.30;5.30;;;;;;;26.71;47.18;94673.95;1789809;79;21212;-57
2022/06/04 10:01:17;;;;;;;7.67;4.90;;;;;;;26.65;47.11;94667.72;1796562;79;21119;-59
2022/06/04 10:03:59;;;;;;;7.05;4.40;;;;;;;26.67;47.34;94668.58;1775212;79;21363;-58
2022/06/04 10:06:30;;;;;;;18.48;4.50;;;;;;;26.76;46.40;94661.78;1798975;79;21089;-57
2022/06/04 10:11:57;;;;;;;10.30;4.50;;;;;;;26.98;45.75;94651.27;1799700;79;21022;-58
2022/06/04 10:14:33;;;;;;;5.37;3.60;;;;;;;27.14;45.41;94657.13;1771524;79;21101;-57
2022/06/04 10:17:20;;;;;;;6.33;3.95;;;;;;;27.23;45.10;94649.53;1799843;79;21355;-57
2022/06/04 10:19:54;;;;;;;4.33;3.08;;;;;;;27.24;44.00;94655.28;1769989;79;21012;-57
2022/06/04 10:22:22;;;;;;;3.65;2.98;;;;;;;27.27;43.52;94644.94;1793293;79;21066;-58
2022/06/04 10:25:03;;;;;;;6.50;3.45;;;;;;;27.27;43.11;94644.30;1799869;79;21014;-56
2022/06/04 10:27:38;;;;;;;3.55;3.15;;;;;;;27.28;43.29;94640.16;1800215;79;21077;-57
2022/06/04 10:30:26;;;;;;;4.65;3.20;;;;;;;27.29;43.41;94645.13;1760575;79;21137;-58
2022/06/04 10:33:08;;;;;;;3.85;2.90;;;;;;;27.24;43.66;94639.73;1799988;79;21067;-56
2022/06/04 10:36:17;;;;;;;5.00;3.83;;;;;;;27.10;43.60;94639.78;1799788;79;21081;-59
2022/06/04 10:38:59;;;;;;;6.22;3.35;;;;;;;26.88;45.19;94640.38;1799968;79;21002;-58
2022/06/04 10:41:35;;;;;;;7.00;3.98;;;;;;;26.54;46.64;94649.68;1799882;79;21083;-58
2022/06/04 10:44:36;;;;;;;5.83;4.10;;;;;;;26.33;47.64;94648.91;1797770;79;21294;-58
2022/06/04 10:47:36;;;;;;;7.92;3.42;;;;;;;26.23;48.14;94650.72;1800059;79;21537;-61
2022/06/04 10:50:22;;;;;;;6.90;4.15;;;;;;;26.18;48.75;94650.21;1799886;79;21027;-57
2022/06/04 10:52:57;;;;;;;6.53;4.03;;;;;;;26.17;49.51;94655.75;1799952;79;21066;-57
2022/06/04 10:55:47;;;;;;;6.43;4.93;;;;;;;26.20;49.34;94655.28;1784821;79;37260;-57
2022/06/04 10:58:29;;;;;;;7.20;4.70;;;;;;;26.32;49.53;94653.03;1799871;79;21131;-57
2022/06/04 11:01:19;;;;;;;;;;;;;;;26.39;50.33;94659.41;1802512;79;21046;-59
2022/06/04 11:04:08;;;;;;;8.00;5.37;;;;;;;26.39;51.03;94658.00;1799946;79;20132;-57
2022/06/04 11:06:43;;;;;;;6.78;5.62;;;;;;;26.29;51.84;94664.02;1800073;79;21499;-56
2022/06/04 11:09:14;;;;;;;6.40;5.03;;;;;;;26.12;52.36;94670.73;1799976;79;21078;-58
2022/06/04 11:11:54;;;;;;;7.95;5.65;;;;;;;25.99;53.94;94668.00;1771444;79;21130;-56
2022/06/04 11:14:56;;;;;;;6.90;5.72;;;;;;;25.85;54.41;94660.80;1799854;79;21081;-58
2022/06/04 11:17:27;;;;;;;11.25;6.03;;;;;;;25.63;55.14;94676.80;1799920;79;21003;-57
2022/06/04 11:20:06;;;;;;;;;;;;;;;25.35;56.16;94672.41;1802926;79;21066;-60
2022/06/04 11:22:40;;;;;;;10.15;6.62;;;;;;;25.09;56.92;94671.78;1799162;79;20229;-57
2022/06/04 11:25:30;;;;;;;8.48;5.53;;;;;;;24.78;56.80;94683.17;1799394;79;21113;-58
2022/06/04 11:28:03;;;;;;;12.05;6.45;;;;;;;24.43;57.40;94686.36;1799840;79;21038;-57
2022/06/04 11:30:36;;;;;;;9.90;6.22;;;;;;;24.04;58.45;94689.08;1800115;79;20991;-57
2022/06/04 11:33:24;;;;;;;21.55;6.75;;;;;;;23.75;59.65;94696.30;1800042;79;21054;-57
2022/06/04 11:36:02;;;;;;;17.25;6.55;;;;;;;23.44;62.16;94714.62;1799785;79;21023;-61
2022/06/04 11:38:44;;;;;;;20.15;8.20;;;;;;;23.07;64.77;94720.19;1799902;79;21475;-58
2022/06/04 11:41:45;;;;;;;15.38;7.17;;;;;;;22.71;66.74;94732.84;1800629;79;21336;-58
2022/06/04 11:44:39;;;;;;;13.75;7.17;;;;;;;22.39;68.90;94738.89;1787572;79;21652;-58
2022/06/04 11:48:05;;;;;;;14.80;9.05;;;;;;;22.10;69.48;94755.03;1799751;79;20983;-60
2022/06/04 11:50:40;;;;;;;16.87;9.05;;;;;;;21.97;71.62;94746.34;1796544;79;21085;-59
2022/06/04 11:53:44;;;;;;;12.03;7.25;;;;;;;21.72;74.04;94737.75;1799911;79;21921;-62
2022/06/04 11:56:47;;;;;;;13.05;6.67;;;;;;;21.65;75.98;94741.11;1800117;79;21042;-61
2022/06/04 11:59:50;;;;;;;13.60;7.80;;;;;;;21.60;78.11;94739.06;1796643;79;21043;-57
2022/06/04 12:02:38;;;;;;;14.07;8.58;;;;;;;21.50;79.05;94745.61;1699621;83;21632;-59
2022/06/04 12:05:20;;;;;;;13.13;8.23;;;;;;;21.42;79.97;94739.05;1700054;84;21058;-59
2022/06/04 12:07:51;;;;;;;5.85;5.22;;;;;;;21.47;80.37;94750.11;1752938;80;21869;-56
2022/06/04 12:10:58;;;;;;;6.72;5.15;;;;;;;21.56;79.75;94755.38;1788828;79;21022;-57
2022/06/04 12:13:44;;;;;;;8.08;5.33;;;;;;;21.71;79.05;94753.81;1788829;80;21070;-56
2022/06/04 12:16:47;;;;;;;8.70;6.45;;;;;;;21.84;77.41;94760.21;1789022;80;21043;-57
2022/06/04 12:25:20;;;;;;;5.25;4.28;;;;;;;21.98;78.75;94768.25;1728742;82;21163;-56
2022/06/04 12:28:03;;;;;;;6.30;4.70;;;;;;;21.90;77.64;94760.92;1747728;80;21030;-58
2022/06/04 12:30:40;;;;;;;5.65;4.40;;;;;;;21.79;77.71;94756.78;1788714;80;21067;-58